Latest Weather Observations for Gabo Island

IDV60801

Issued at 12:05 pm EST Thursday 21 August 2014 (issued every 30 minutes, with the page automatically refreshed every 10 minutes)

About weather observations | Map of weather stations | Latest weather observations for VIC | Other Formats
Station Details ID: 084016 Name: GABO ISLAND LIGHTHOUSE Lat: -37.57 Lon: 149.92 Height: 15.2 m
Data from the previous 72 hours. | See also: Recent months at Gabo Island
Date/Time
EST
Temp
°C
App
Temp
°C
Dew
Point
Rel
Hum
%
Delta-T
°C
Wind Press
QNH
hPa
Press
MSL
hPa
Rain
since 9 am
mm
Dir
 
Spd
km/h
Gust
km/h
Spd
kts
Gust
kts
21/12:00pm 14.0 11.5 9.7 75 2.2 SW 13 15 7 8 1030.9 1031.0 0.0
21/11:30am 13.8 10.9 9.7 76 2.1 WSW 15 17 8 9 1031.2 - 0.0
21/11:00am 13.6 10.7 9.5 76 2.1 WSW 15 19 8 10 1031.5 - 0.0
21/10:30am 13.2 10.0 9.9 80 1.7 W 17 20 9 11 1031.5 - 0.0
21/10:00am 12.6 9.3 9.6 82 1.5 W 17 20 9 11 1031.5 - 0.0
21/09:30am 11.6 8.7 9.6 87 1.0 WNW 15 19 8 10 1031.4 - 0.0
21/09:00am 11.2 8.3 9.6 90 0.8 WNW 15 20 8 11 1031.3 1031.4 0.8
21/08:30am 10.2 6.4 9.0 92 0.6 WNW 19 22 10 12 1031.2 - 0.8
21/08:00am 10.4 6.6 9.0 91 0.7 W 19 22 10 12 1031.0 - 0.8
21/07:30am 10.1 7.0 8.7 91 0.7 W 15 19 8 10 1030.7 - 0.8
21/07:00am 9.7 6.4 8.2 90 0.7 NW 15 20 8 11 1030.5 - 0.6
21/06:30am 9.8 6.0 7.7 87 1.0 WNW 17 20 9 11 1030.3 - 0.4
21/06:00am 9.7 5.5 7.6 87 1.0 WNW 19 22 10 12 1029.7 1029.8 0.4
21/05:30am 10.0 5.6 6.5 79 1.6 WNW 19 24 10 13 1029.5 - 0.0
21/05:00am 9.9 5.3 6.7 80 1.5 WNW 20 24 11 13 1029.3 - 0.0
21/04:30am 10.1 5.7 6.7 79 1.6 WNW 19 20 10 11 1029.1 - 0.0
21/04:00am 10.0 5.7 6.8 80 1.5 WNW 19 24 10 13 1029.1 - 0.0
21/03:30am 10.0 5.7 6.8 80 1.5 WNW 19 22 10 12 1028.8 - 0.0
21/03:00am 10.0 5.6 6.6 79 1.6 - 19 24 10 13 1028.6 1028.6 0.0
21/02:30am 10.2 6.3 7.0 80 1.5 WNW 17 20 9 11 1028.7 - 0.0
21/02:00am 10.4 6.4 6.8 78 1.7 W 17 20 9 11 1028.8 - 0.0
21/01:30am 10.2 5.8 6.5 78 1.7 WNW 19 22 10 12 1028.8 - 0.0
21/01:00am 10.3 5.9 6.7 78 1.7 WNW 19 24 10 13 1028.8 - 0.0
21/12:30am 10.2 5.7 6.8 79 1.6 WNW 20 26 11 14 1028.9 - 0.0
21/12:00am 10.2 5.9 6.8 79 1.6 WNW 19 24 10 13 1028.8 1028.8 0.0
 
Date/Time
EST
Temp
°C
App
Temp
°C
Dew
Point
Rel
Hum
%
Delta-T
°C
Wind Press
QNH
hPa
Press
MSL
hPa
Rain
since 9 am
mm
Dir
 
Spd
km/h
Gust
km/h
Spd
kts
Gust
kts
20/11:30pm 10.1 6.1 6.7 79 1.6 WNW 17 24 9 13 1028.9 - 0.0
20/11:00pm 10.1 5.7 6.7 79 1.6 WNW 19 22 10 12 1028.7 - 0.0
20/10:30pm 10.5 6.1 6.6 77 1.8 WNW 19 26 10 14 1028.6 - 0.0
20/10:00pm 10.7 6.8 6.9 77 1.8 WNW 17 20 9 11 1028.6 - 0.0
20/09:30pm 10.8 7.4 7.7 81 1.5 W 15 20 8 11 1028.8 - 0.0
20/09:00pm 11.7 7.6 8.0 78 1.8 - 19 20 10 11 1028.7 1028.7 0.0
20/08:30pm 12.2 7.9 7.9 75 2.1 WSW 20 24 11 13 1028.6 - 0.0
20/08:00pm 12.5 7.9 8.0 74 2.2 WSW 22 26 12 14 1028.4 - 0.0
20/07:30pm 12.7 7.9 7.3 69 2.6 SW 22 28 12 15 1028.2 - 0.0
20/07:00pm 12.8 8.4 7.4 69 2.6 SW 20 26 11 14 1028.1 - 0.0
20/06:30pm 12.7 6.8 7.3 69 2.6 SW 28 33 15 18 1027.7 - 0.0
20/06:00pm 12.6 6.9 6.5 66 2.9 SW 26 32 14 17 1027.4 1027.4 0.0
20/05:30pm 11.9 7.7 8.2 78 1.8 SSE 20 33 11 18 1027.2 - 0.0
20/05:00pm 11.8 5.8 8.8 82 1.5 S 30 35 16 19 1026.9 - 0.0
20/04:30pm 12.5 5.6 7.1 69 2.6 SSW 33 43 18 23 1026.6 - 0.0
20/04:00pm 12.9 6.0 7.1 68 2.8 SSW 33 43 18 23 1026.3 - 0.0
20/03:30pm 12.8 4.8 5.7 62 3.3 SW 37 41 20 22 1026.0 - 0.0
20/03:00pm 13.1 5.6 6.3 63 3.2 SW 35 44 19 24 1025.6 1025.6 0.0
20/02:30pm 13.3 5.7 5.8 60 3.5 SW 35 43 19 23 1025.5 - 0.0
20/02:00pm 13.6 6.5 5.5 58 3.8 SW 32 37 17 20 1025.3 - 0.0
20/01:30pm 13.8 7.7 4.9 55 4.1 SW 26 33 14 18 1025.3 - 0.0
20/01:00pm 13.9 8.0 5.8 58 3.8 WSW 26 32 14 17 1025.5 - 0.0
20/12:30pm 13.9 8.0 5.6 57 3.9 WSW 26 35 14 19 1025.6 - 0.0
20/12:00pm 14.0 7.7 5.7 57 3.9 WSW 28 35 15 19 1025.6 1025.6 0.0
20/11:30am 14.6 8.7 6.0 56 4.1 WSW 26 32 14 17 1026.0 - 0.0
20/11:00am 13.8 8.2 5.5 57 3.9 W 24 30 13 16 1026.2 - 0.0
20/10:30am 13.1 7.3 6.3 63 3.2 W 26 32 14 17 1026.3 - 0.0
20/10:00am 13.0 7.5 5.7 61 3.4 W 24 30 13 16 1026.1 - 0.0
20/09:30am 12.0 5.8 6.0 66 2.8 W 28 33 15 18 1025.9 - 0.0
20/09:00am 12.3 5.3 5.9 65 3.0 W 32 37 17 20 1025.7 1025.7 0.0
20/08:30am 11.7 4.7 6.1 68 2.6 W 32 37 17 20 1025.6 - 0.0
20/08:00am 11.4 4.3 5.5 67 2.7 W 32 39 17 21 1025.4 - 0.0
20/07:30am 11.3 4.2 5.7 68 2.6 W 32 39 17 21 1024.9 - 0.0
20/07:00am 11.3 3.9 4.9 65 2.9 W 33 43 18 23 1024.7 - 0.0
20/06:30am 11.4 3.9 4.5 62 3.1 W 33 41 18 22 1024.4 - 0.0
20/06:00am 11.0 4.7 4.0 62 3.1 - 26 33 14 18 1024.2 - 0.0
20/05:30am 11.2 5.0 4.5 63 3.0 W 26 33 14 18 1024.0 - 0.0
20/05:00am 11.2 5.1 4.8 64 2.9 W 26 32 14 17 1024.0 - 0.0
20/04:30am 11.2 4.8 5.0 65 2.8 W 28 33 15 18 1023.9 - 0.0
20/04:00am 11.1 4.7 5.2 67 2.7 W 28 35 15 19 1023.7 - 0.0
20/03:30am 11.2 4.7 4.8 64 2.9 W 28 35 15 19 1023.6 - 0.0
20/03:00am 11.7 5.8 5.6 66 2.8 - 26 32 14 17 1023.6 - 0.0
20/02:30am 11.8 5.1 5.5 65 2.9 WSW 30 37 16 20 1023.6 - 0.0
20/02:00am 11.5 4.9 5.9 68 2.6 W 30 37 16 20 1023.7 - 0.0
20/01:30am 11.3 5.2 6.4 72 2.3 W 28 33 15 18 1023.8 - 0.0
20/01:00am 11.6 5.5 6.5 71 2.4 W 28 35 15 19 1023.7 - 0.0
20/12:30am 11.6 5.8 6.3 70 2.5 WSW 26 33 14 18 1023.6 - 0.0
20/12:00am 12.2 6.5 6.5 68 2.7 WSW 26 33 14 18 1023.6 1023.6 0.0
 
Date/Time
EST
Temp
°C
App
Temp
°C
Dew
Point
Rel
Hum
%
Delta-T
°C
Wind Press
QNH
hPa
Press
MSL
hPa
Rain
since 9 am
mm
Dir
 
Spd
km/h
Gust
km/h
Spd
kts
Gust
kts
19/11:30pm 13.4 3.8 3.3 50 4.5 SW 43 50 23 27 1023.5 - 0.0
19/11:00pm 13.0 5.6 5.2 59 3.6 WSW 33 43 18 23 1023.6 - 0.0
19/10:44pm 12.7 6.6 6.8 67 2.8 W 28 43 15 23 1023.6 - 0.0
19/10:30pm 13.2 5.0 5.0 57 3.8 SW 37 43 20 23 1023.4 - 0.0
19/10:00pm 13.2 5.5 5.2 58 3.7 SSW 35 43 19 23 1023.4 - 0.0
19/09:30pm 13.4 5.5 6.0 61 3.5 SSW 37 46 20 25 1023.3 - 0.0
19/09:00pm 13.1 6.1 8.5 73 2.3 - 35 46 19 25 1023.4 - 0.0
19/08:30pm 13.4 6.0 8.4 72 2.5 S 37 44 20 24 1023.2 - 0.0
19/08:00pm 13.0 6.3 8.1 72 2.4 SSW 33 39 18 21 1023.2 - 0.0
19/07:30pm 13.5 6.2 8.7 73 2.4 SSW 37 52 20 28 1023.0 - 0.0
19/07:00pm 13.5 6.3 7.6 67 2.9 SSW 35 43 19 23 1022.8 - 0.0
19/06:30pm 13.3 6.2 6.6 64 3.2 SSW 33 43 18 23 1022.6 - 0.0
19/06:00pm 13.0 4.1 6.7 65 3.0 - 43 52 23 28 1022.4 - 0.0
19/05:30pm 13.4 5.3 5.2 57 3.8 SSW 37 46 20 25 1022.1 - 0.0
19/05:00pm 13.4 4.0 4.4 54 4.1 SW 43 50 23 27 1021.8 - 0.0
19/04:30pm 13.6 4.8 5.7 59 3.7 SSW 41 50 22 27 1021.6 - 0.0
19/04:00pm 13.4 5.5 4.1 53 4.2 SSW 35 43 19 23 1021.5 - 0.0
19/03:30pm 13.6 4.4 5.5 58 3.8 SSW 43 50 23 27 1021.2 - 0.0
19/03:00pm 13.8 5.7 7.2 64 3.2 SSW 39 50 21 27 1021.2 1021.2 0.0
19/02:30pm 13.6 5.7 6.2 61 3.5 SSW 37 46 20 25 1021.1 - 0.0
19/02:00pm 13.5 4.8 5.9 60 3.6 SSW 41 52 22 28 1020.8 - 0.0
19/01:30pm 13.9 5.2 5.9 58 3.8 SSW 41 48 22 26 1020.7 - 0.0
19/01:00pm 14.6 5.6 6.3 57 4.0 S 43 50 23 27 1020.7 - 0.0
19/12:30pm 14.0 4.9 6.7 61 3.5 SSW 44 52 24 28 1020.7 - 0.0
19/12:00pm 14.4 5.7 7.5 63 3.4 S 43 50 23 27 1020.9 1020.9 0.0
19/11:30am 14.6 6.5 6.8 59 3.8 SSW 39 46 21 25 1021.1 - 0.0
19/11:00am 14.6 5.7 6.8 59 3.8 S 43 48 23 26 1021.3 - 0.0
19/10:30am 14.3 6.0 7.6 64 3.3 SSW 41 48 22 26 1021.2 - 0.0
19/10:00am 14.3 5.8 8.5 68 2.9 SSW 43 50 23 27 1021.0 - 0.0
19/09:30am 14.6 6.4 8.2 65 3.2 SSW 41 46 22 25 1020.9 - 0.0
19/09:00am 14.6 6.2 8.9 68 2.9 S 43 50 23 27 1020.7 1020.7 2.0
19/08:30am 14.6 6.6 8.9 68 2.9 S 41 48 22 26 1020.4 - 2.0
19/08:00am 14.4 7.0 9.7 73 2.4 S 39 48 21 26 1020.2 - 2.0
19/07:30am 14.2 5.9 9.3 72 2.5 S 43 52 23 28 1019.9 - 2.0
19/07:00am 14.0 5.8 9.7 75 2.2 S 43 52 23 28 1019.4 - 2.0
19/06:30am 14.1 5.8 9.4 73 2.4 S 43 52 23 28 1019.1 - 2.0
19/06:00am 14.2 7.0 9.3 72 2.5 - 37 48 20 26 1018.8 - 2.0
19/05:30am 14.3 7.4 10.3 77 2.1 S 37 48 20 26 1018.6 - 2.0
19/05:00am 14.3 7.0 10.3 77 2.1 S 39 46 21 25 1018.4 - 2.0
19/04:30am 14.4 8.0 10.8 79 1.9 S 35 44 19 24 1018.1 - 2.0
19/04:00am 14.5 7.7 10.7 78 2.0 S 37 46 20 25 1018.0 - 2.0
19/03:30am 14.5 9.8 10.5 77 2.1 SSE 26 33 14 18 1017.8 - 2.0
19/03:00am 14.6 8.4 10.2 75 2.3 - 33 41 18 22 1017.7 - 2.0
19/02:30am 14.6 8.7 10.4 76 2.2 S 32 39 17 21 1017.7 - 2.0
19/02:00am 14.7 8.8 10.5 76 2.2 S 32 39 17 21 1017.9 - 2.0
19/01:30am 14.7 8.8 10.3 75 2.3 S 32 43 17 23 1018.0 - 2.0
19/01:00am 14.6 8.7 10.4 76 2.2 S 32 43 17 23 1017.9 - 2.0
19/12:30am 14.8 8.3 10.4 75 2.3 S 35 43 19 23 1017.7 - 2.0
19/12:00am 14.2 10.6 10.6 79 1.9 - 20 43 11 23 1017.8 - 2.0
 
Date/Time
EST
Temp
°C
App
Temp
°C
Dew
Point
Rel
Hum
%
Delta-T
°C
Wind Press
QNH
hPa
Press
MSL
hPa
Rain
since 9 am
mm
Dir
 
Spd
km/h
Gust
km/h
Spd
kts
Gust
kts
18/11:30pm 14.3 9.6 10.7 79 1.9 SSE 26 32 14 17 1017.8 - 2.0
18/11:00pm 14.9 9.0 10.3 74 2.4 S 32 41 17 22 1017.6 - 2.0
18/10:30pm 14.9 9.0 10.3 74 2.4 S 32 39 17 21 1017.5 - 2.0
18/10:00pm 14.7 8.5 10.1 74 2.4 S 33 41 18 22 1017.5 - 2.0
18/09:30pm 14.6 9.1 12.0 84 1.4 S 32 44 17 24 1017.4 - 2.0
18/09:00pm 15.0 9.0 10.0 72 2.6 - 32 41 17 22 1017.2 - 2.0
18/08:30pm 14.9 9.3 11.5 80 1.8 S 32 41 17 22 1017.0 - 2.0
18/08:00pm 15.0 8.7 11.2 78 2.0 S 35 44 19 24 1016.8 - 2.0
18/07:30pm 15.0 8.8 11.3 78 2.0 S 35 43 19 23 1016.7 - 2.0
18/07:00pm 14.9 8.6 10.9 77 2.1 SSE 35 46 19 25 1016.4 - 2.0
18/06:30pm 15.0 9.5 11.7 80 1.8 S 32 43 17 23 1016.2 - 2.0
18/06:00pm 15.0 8.3 11.0 77 2.1 - 37 43 20 23 1015.9 - 2.0
18/05:30pm 14.9 7.7 10.7 76 2.2 SSE 39 48 21 26 1015.6 - 2.0
18/05:00pm 14.3 7.5 11.9 85 1.3 SSE 39 48 21 26 1015.3 - 2.0
18/04:50pm 14.0 7.1 11.6 85 1.3 S 39 61 21 33 1015.2 - 1.8
18/04:30pm 14.6 8.7 11.0 79 1.9 SSE 33 43 18 23 1014.9 - 1.4
18/04:00pm 14.9 9.4 11.9 82 1.6 S 32 37 17 20 1014.8 - 0.0
18/03:30pm 14.7 8.2 10.3 75 2.3 SSE 35 43 19 23 1014.6 - 0.0
18/03:00pm 14.9 9.0 10.3 74 2.4 SE 32 41 17 22 1014.6 1014.6 0.0
18/02:30pm 15.5 9.1 10.6 72 2.6 S 35 46 19 25 1014.1 - 0.0
18/02:00pm 14.9 10.3 10.9 77 2.1 SE 26 37 14 20 1014.1 - 0.0
18/01:44pm 15.5 10.8 10.8 73 2.5 SE 26 44 14 24 1014.2 - 0.0
18/01:30pm 15.9 9.1 10.6 71 2.8 SSE 37 46 20 25 1014.0 - 0.0
18/01:00pm 16.2 8.7 10.8 70 2.9 SSE 41 52 22 28 1013.9 - 0.0
18/12:30pm 16.2 9.8 10.8 70 2.9 SSE 35 43 19 23 1013.9 - 0.0

Other Formats:

Comma delimited format used in spreadsheet applications
http://www.bom.gov.au/fwo/IDV60801/IDV60801.94933.axf

JavaScript Object Notation format (JSON) in row-major order
http://www.bom.gov.au/fwo/IDV60801/IDV60801.94933.json